createdAt,value
2022-08-22T00:00:14.148Z,99719.09
2022-08-22T00:02:55.897Z,99680.59
2022-08-22T00:02:58.022Z,99719.69
2022-08-22T00:02:59.073Z,99716.13
2022-08-22T00:03:07.845Z,99740.22
2022-08-22T00:03:12.196Z,99714.09
2022-08-22T00:06:25.813Z,99710.34
2022-08-22T00:09:15.515Z,99712.00
2022-08-22T00:11:54.189Z,99710.34
2022-08-22T00:14:54.821Z,99709.66
2022-08-22T00:17:36.758Z,99714.22
2022-08-22T00:20:19.232Z,99705.13
2022-08-22T00:22:50.592Z,99709.34
2022-08-22T00:25:27.319Z,99711.72
2022-08-22T00:27:57.696Z,99711.53
2022-08-22T00:30:25.125Z,99709.53
2022-08-22T00:32:59.609Z,99700.28
2022-08-22T00:35:36.321Z,99702.16
2022-08-22T00:38:33.836Z,99697.81
2022-08-22T00:41:24.818Z,99699.16
2022-08-22T00:44:10.738Z,99696.31
2022-08-22T00:47:23.764Z,99695.81
2022-08-22T00:50:09.129Z,99705.72
2022-08-22T00:53:00.663Z,99699.03
2022-08-22T00:55:50.896Z,99686.41
2022-08-22T00:58:32.531Z,99695.34
2022-08-22T01:01:09.794Z,99695.97
2022-08-22T01:03:48.361Z,99692.47
2022-08-22T01:06:33.183Z,99702.84
2022-08-22T01:09:15.291Z,99695.16
2022-08-22T01:11:51.674Z,99690.97
2022-08-22T01:14:34.548Z,99691.13
2022-08-22T01:17:20.061Z,99691.63
2022-08-22T01:19:58.539Z,99696.50
2022-08-22T01:22:49.116Z,99696.16
2022-08-22T01:25:57.453Z,99691.28
2022-08-22T01:29:09.455Z,99688.75
2022-08-22T01:32:08.008Z,99684.91
2022-08-22T01:34:55.593Z,99682.03
2022-08-22T01:37:25.030Z,99685.41
2022-08-22T01:40:03.620Z,99679.84
2022-08-22T01:42:57.439Z,99680.84
2022-08-22T01:45:53.139Z,99678.84
2022-08-22T01:48:32.757Z,99672.31
2022-08-22T01:51:22.528Z,99677.53
2022-08-22T01:54:04.732Z,99669.16
2022-08-22T01:56:35.921Z,99673.66
2022-08-22T01:59:10.062Z,99675.72
2022-08-22T02:01:59.507Z,99671.66
2022-08-22T02:04:59.785Z,99670.13
2022-08-22T02:07:32.364Z,99671.31
2022-08-22T02:10:20.879Z,99679.38
2022-08-22T02:13:12.876Z,99680.38
2022-08-22T02:15:40.859Z,99679.56
2022-08-22T02:18:08.955Z,99681.19
2022-08-22T02:20:47.543Z,99677.50
2022-08-22T02:23:26.104Z,99673.00
2022-08-22T02:26:03.226Z,99671.16
2022-08-22T02:28:36.564Z,99669.97
2022-08-22T02:31:16.688Z,99666.28
2022-08-22T02:33:46.451Z,99668.59
2022-08-22T02:36:29.468Z,99664.25
2022-08-22T02:39:13.562Z,99666.09
2022-08-22T02:42:01.789Z,99667.09
2022-08-22T02:44:42.367Z,99662.91
2022-08-22T02:47:26.896Z,99664.94
2022-08-22T02:50:43.118Z,99664.44
2022-08-22T02:53:15.274Z,99666.28
2022-08-22T02:55:59.609Z,99668.97
2022-08-22T02:58:47.740Z,99671.66
2022-08-22T03:01:22.176Z,99665.28
2022-08-22T03:03:49.882Z,99669.81
2022-08-22T03:06:42.572Z,99666.13
2022-08-22T03:09:15.038Z,99673.53
2022-08-22T03:11:47.482Z,99671.16
2022-08-22T03:14:52.367Z,99670.16
2022-08-22T03:17:24.221Z,99672.19
2022-08-22T03:20:00.707Z,99665.50
2022-08-22T03:22:53.516Z,99666.50
2022-08-22T03:25:31.084Z,99662.31
2022-08-22T03:28:11.235Z,99666.34
2022-08-22T03:30:41.812Z,99660.97
2022-08-22T03:33:18.620Z,99671.03
2022-08-22T03:35:44.968Z,99667.84
2022-08-22T03:38:22.688Z,99669.00
2022-08-22T03:41:29.674Z,99675.53
2022-08-22T03:44:05.315Z,99669.66
2022-08-22T03:46:54.939Z,99674.38
2022-08-22T03:49:47.739Z,99677.38
2022-08-22T03:52:24.880Z,99681.38
2022-08-22T03:55:32.204Z,99691.59
2022-08-22T03:58:27.701Z,99692.25
2022-08-22T04:01:16.855Z,99684.22
2022-08-22T04:04:01.897Z,99687.06
2022-08-22T04:06:48.363Z,99685.72
2022-08-22T04:09:44.882Z,99688.72
2022-08-22T04:12:41.628Z,99698.09
2022-08-22T04:15:26.848Z,99687.84
2022-08-22T04:18:22.129Z,99694.03
2022-08-22T04:21:12.322Z,99703.06
2022-08-22T04:23:45.281Z,99697.06
2022-08-22T04:26:15.920Z,99695.53
2022-08-22T04:28:47.365Z,99693.69
2022-08-22T04:31:17.566Z,99706.25
2022-08-22T04:33:51.101Z,99693.03
2022-08-22T04:36:29.944Z,99700.72
2022-08-22T04:39:00.869Z,99703.75
2022-08-22T04:41:41.917Z,99703.41
2022-08-22T04:44:15.003Z,99704.09
2022-08-22T04:46:49.643Z,99704.63
2022-08-22T04:49:27.841Z,99702.59
2022-08-22T04:52:12.817Z,99706.97
2022-08-22T04:55:11.397Z,99707.81
2022-08-22T04:57:51.163Z,99707.66
2022-08-22T05:00:18.031Z,99714.69
2022-08-22T05:02:49.418Z,99716.34
2022-08-22T05:05:23.925Z,99713.19
2022-08-22T05:07:59.915Z,99716.03
2022-08-22T05:10:39.745Z,99719.88
2022-08-22T05:13:13.920Z,99714.34
2022-08-22T05:15:44.160Z,99716.88
2022-08-22T05:18:17.745Z,99718.88
2022-08-22T05:20:46.651Z,99714.34
2022-08-22T05:23:23.411Z,99713.53
2022-08-22T05:25:52.167Z,99715.53
2022-08-22T05:28:36.028Z,99712.00
2022-08-22T05:31:06.012Z,99713.66
2022-08-22T05:33:49.114Z,99708.16
2022-08-22T05:36:20.950Z,99707.00
2022-08-22T05:38:51.374Z,99702.63
2022-08-22T05:41:23.675Z,99707.16
2022-08-22T05:43:51.416Z,99709.00
2022-08-22T05:46:22.034Z,99707.31
2022-08-22T05:48:59.786Z,99705.63
2022-08-22T05:51:40.480Z,99712.53
2022-08-22T05:54:15.310Z,99707.31
2022-08-22T05:56:45.044Z,99718.88
2022-08-22T05:59:21.163Z,99715.34
2022-08-22T06:02:12.380Z,99716.69
2022-08-22T06:04:47.324Z,99721.53
2022-08-22T06:07:23.525Z,99719.19
2022-08-22T06:10:22.089Z,99727.06
2022-08-22T06:13:00.669Z,99729.75
2022-08-22T06:15:38.404Z,99723.56
2022-08-22T06:18:10.371Z,99735.28
2022-08-22T06:20:45.055Z,99727.41
2022-08-22T06:23:15.971Z,99727.22
2022-08-22T06:25:45.576Z,99740.13
2022-08-22T06:28:16.558Z,99741.13
2022-08-22T06:30:45.439Z,99738.59
2022-08-22T06:33:17.116Z,99739.28
2022-08-22T06:36:07.164Z,99744.78
2022-08-22T06:38:52.092Z,99747.47
2022-08-22T06:41:22.047Z,99751.19
2022-08-22T06:43:49.907Z,99759.06
2022-08-22T06:46:16.911Z,99756.19
2022-08-22T06:48:44.044Z,99761.72
2022-08-22T06:51:11.425Z,99748.16
2022-08-22T06:53:48.167Z,99749.69
2022-08-22T06:56:23.887Z,99752.72
2022-08-22T06:58:53.920Z,99746.69
2022-08-22T07:01:56.066Z,99753.09
2022-08-22T07:04:27.292Z,99754.78
2022-08-22T07:06:55.398Z,99762.19
2022-08-22T07:09:34.838Z,99752.66
2022-08-22T07:12:05.200Z,99766.09
2022-08-22T07:14:40.052Z,99764.41
2022-08-22T07:17:09.140Z,99768.78
2022-08-22T07:19:41.544Z,99769.97
2022-08-22T07:22:13.824Z,99775.50
2022-08-22T07:24:48.051Z,99773.00
2022-08-22T07:27:27.711Z,99778.56
2022-08-22T07:30:06.827Z,99778.72
2022-08-22T07:33:26.326Z,99780.56
2022-08-22T07:35:53.140Z,99769.13
2022-08-22T07:38:42.422Z,99771.63
2022-08-22T07:41:20.829Z,99775.84
2022-08-22T07:44:02.972Z,99779.69
2022-08-22T07:46:51.093Z,99786.06
2022-08-22T07:49:24.623Z,99790.59
2022-08-22T07:51:57.624Z,99780.84
2022-08-22T07:54:46.788Z,99783.31
2022-08-22T07:57:21.142Z,99780.78
2022-08-22T07:59:54.292Z,99783.44
2022-08-22T08:02:21.214Z,99788.13
2022-08-22T08:04:53.156Z,99785.25
2022-08-22T08:07:23.290Z,99785.25
2022-08-22T08:09:52.970Z,99783.50
2022-08-22T08:12:21.969Z,99781.13
2022-08-22T08:14:52.432Z,99783.13
2022-08-22T08:17:30.132Z,99778.91
2022-08-22T08:20:02.411Z,99782.75
2022-08-22T08:22:29.709Z,99785.38
2022-08-22T08:24:57.306Z,99779.44
2022-08-22T08:27:50.318Z,99778.88
2022-08-22T08:30:34.032Z,99775.38
2022-08-22T08:33:25.033Z,99781.66
2022-08-22T08:36:02.455Z,99776.69
2022-08-22T08:38:36.995Z,99775.78
2022-08-22T08:41:23.968Z,99775.34
2022-08-22T08:44:32.050Z,99770.53
2022-08-22T08:47:23.220Z,99767.66
2022-08-22T08:50:17.551Z,99763.50
2022-08-22T08:53:02.824Z,99762.84
2022-08-22T08:55:45.796Z,99767.13
2022-08-22T08:58:40.283Z,99766.66
2022-08-22T09:01:19.478Z,99764.97
2022-08-22T09:04:15.084Z,99756.56
2022-08-22T09:06:44.967Z,99760.44
2022-08-22T09:09:52.607Z,99757.47
2022-08-22T09:12:43.393Z,99759.03
2022-08-22T09:15:37.604Z,99765.81
2022-08-22T09:18:30.264Z,99761.31
2022-08-22T09:21:31.317Z,99758.88
2022-08-22T09:24:20.842Z,99763.13
2022-08-22T09:26:53.082Z,99764.63
2022-08-22T09:29:32.735Z,99762.84
2022-08-22T09:32:14.071Z,99762.06
2022-08-22T09:34:56.548Z,99755.72
2022-08-22T09:37:37.881Z,99753.09
2022-08-22T09:40:18.924Z,99757.72
2022-08-22T09:43:05.597Z,99749.84
2022-08-22T09:45:52.228Z,99744.31
2022-08-22T09:48:30.534Z,99740.38
2022-08-22T09:51:31.975Z,99734.63
2022-08-22T09:54:11.411Z,99737.56
2022-08-22T09:56:40.044Z,99729.91
2022-08-22T09:59:16.121Z,99720.59
2022-08-22T10:02:20.998Z,99724.38
2022-08-22T10:04:56.581Z,99727.09
2022-08-22T10:07:34.558Z,99724.59
2022-08-22T10:10:35.942Z,99711.88
2022-08-22T10:13:30.530Z,99700.66
2022-08-22T10:16:24.872Z,99707.53
2022-08-22T10:19:03.542Z,99706.94
2022-08-22T10:21:50.938Z,99700.28
2022-08-22T10:24:43.834Z,99708.78
2022-08-22T10:27:16.381Z,99706.28
2022-08-22T10:29:54.856Z,99695.88
2022-08-22T10:32:30.784Z,99696.50
2022-08-22T10:35:13.895Z,99702.34
2022-08-22T10:37:53.230Z,99692.97
2022-08-22T10:40:32.891Z,99684.44
2022-08-22T10:43:02.340Z,99680.91
2022-08-22T10:45:36.565Z,99692.16
2022-08-22T10:48:10.094Z,99686.53
2022-08-22T10:50:40.962Z,99686.53
2022-08-22T10:53:30.758Z,99686.47
2022-08-22T10:56:15.962Z,99673.72
2022-08-22T10:59:06.264Z,99691.56
2022-08-22T11:01:41.992Z,99683.59
2022-08-22T11:04:33.324Z,99680.41
2022-08-22T11:07:21.889Z,99672.84
2022-08-22T11:09:54.964Z,99676.94
2022-08-22T11:12:35.185Z,99678.81
2022-08-22T11:15:37.982Z,99667.56
2022-08-22T11:18:16.217Z,99675.47
2022-08-22T11:21:07.584Z,99673.59
2022-08-22T11:23:44.920Z,99676.94
2022-08-22T11:26:30.137Z,99677.84
2022-08-22T11:29:38.530Z,99679.75
2022-08-22T11:32:25.542Z,99678.75
2022-08-22T11:35:00.974Z,99672.31
2022-08-22T11:37:44.483Z,99674.63
2022-08-22T11:40:32.810Z,99666.25
2022-08-22T11:43:32.705Z,99666.88
2022-08-22T11:46:05.124Z,99663.94
2022-08-22T11:48:56.666Z,99659.75
2022-08-22T11:51:51.172Z,99663.47
2022-08-22T11:54:33.302Z,99663.38
2022-08-22T11:57:12.571Z,99659.34
2022-08-22T11:59:56.162Z,99654.19
2022-08-22T12:02:26.920Z,99654.38
2022-08-22T12:04:58.764Z,99649.56
2022-08-22T12:07:32.189Z,99655.41
2022-08-22T12:10:02.255Z,99646.84
2022-08-22T12:12:44.228Z,99647.25
2022-08-22T12:15:48.974Z,99650.50
2022-08-22T12:18:41.934Z,99645.75
2022-08-22T12:21:51.416Z,99634.41
2022-08-22T12:24:34.112Z,99625.53
2022-08-22T12:27:27.936Z,99627.78
2022-08-22T12:30:14.000Z,99624.09
2022-08-22T12:32:59.646Z,99628.31
2022-08-22T12:35:38.252Z,99628.91
2022-08-22T12:38:28.549Z,99634.81
2022-08-22T12:41:01.766Z,99617.28
2022-08-22T12:43:43.446Z,99613.53
2022-08-22T12:46:17.403Z,99612.56
2022-08-22T12:49:13.673Z,99614.34
2022-08-22T12:52:21.924Z,99610.47
2022-08-22T12:55:11.252Z,99603.63
2022-08-22T12:58:21.582Z,99601.38
2022-08-22T13:00:48.885Z,99598.03
2022-08-22T13:03:23.987Z,99601.84
2022-08-22T13:05:57.041Z,99599.13
2022-08-22T13:08:41.593Z,99603.06
2022-08-22T13:11:22.787Z,99605.03
2022-08-22T13:13:56.202Z,99593.81
2022-08-22T13:16:24.166Z,99590.81
2022-08-22T13:19:00.545Z,99589.53
2022-08-22T13:21:38.601Z,99588.69
2022-08-22T13:24:10.581Z,99592.69
2022-08-22T13:26:49.319Z,99593.16
2022-08-22T13:29:39.476Z,99593.81
2022-08-22T13:32:10.910Z,99591.78
2022-08-22T13:34:45.583Z,99584.75
2022-08-22T13:37:25.802Z,99579.53
2022-08-22T13:39:55.994Z,99592.06
2022-08-22T13:42:30.339Z,99585.56
2022-08-22T13:45:02.436Z,99592.91
2022-08-22T13:47:31.544Z,99586.63
2022-08-22T13:50:07.616Z,99582.03
2022-08-22T13:52:52.178Z,99574.19
2022-08-22T13:55:31.016Z,99579.94
2022-08-22T13:58:04.568Z,99582.00
2022-08-22T14:01:10.216Z,99581.16
2022-08-22T14:04:36.259Z,99576.34
2022-08-22T14:07:05.944Z,99573.00
2022-08-22T14:09:37.974Z,99575.47
2022-08-22T14:12:08.148Z,99580.72
2022-08-22T14:14:43.572Z,99576.91
2022-08-22T14:17:19.721Z,99578.19
2022-08-22T14:19:58.966Z,99573.38
2022-08-22T14:22:32.501Z,99571.72
2022-08-22T14:25:07.334Z,99568.41
2022-08-22T14:27:40.228Z,99566.34
2022-08-22T14:30:18.643Z,99566.78
2022-08-22T14:32:52.430Z,99557.19
2022-08-22T14:35:34.718Z,99564.31
2022-08-22T14:38:31.943Z,99554.72
2022-08-22T14:41:13.776Z,99552.84
2022-08-22T14:43:57.419Z,99557.19
2022-08-22T14:46:28.563Z,99554.72
2022-08-22T14:49:26.819Z,99550.94
2022-08-22T14:52:09.782Z,99547.19
2022-08-22T14:54:37.024Z,99550.28
2022-08-22T14:57:10.392Z,99541.81
2022-08-22T14:59:38.412Z,99546.75
2022-08-22T15:02:14.743Z,99540.09
2022-08-22T15:04:47.312Z,99538.44
2022-08-22T15:07:23.655Z,99534.09
2022-08-22T15:09:52.480Z,99530.75
2022-08-22T15:12:20.697Z,99535.06
2022-08-22T15:14:52.354Z,99541.50
2022-08-22T15:17:36.416Z,99534.78
2022-08-22T15:20:11.755Z,99529.00
2022-08-22T15:22:40.345Z,99530.69
2022-08-22T15:25:34.210Z,99532.84
2022-08-22T15:28:05.755Z,99515.88
2022-08-22T15:30:36.590Z,99527.25
2022-08-22T15:33:16.329Z,99531.47
2022-08-22T15:35:44.075Z,99527.19
2022-08-22T15:38:36.391Z,99524.91
2022-08-22T15:41:22.398Z,99527.34
2022-08-22T15:43:52.007Z,99533.72
2022-08-22T15:46:29.728Z,99521.22
2022-08-22T15:49:03.872Z,99522.16
2022-08-22T15:51:36.967Z,99521.78
2022-08-22T15:54:25.044Z,99521.41
2022-08-22T15:56:51.889Z,99522.34
2022-08-22T15:59:24.524Z,99524.06
2022-08-22T16:01:55.850Z,99525.47
2022-08-22T16:04:37.542Z,99520.31
2022-08-22T16:07:20.819Z,99527.97
2022-08-22T16:09:54.615Z,99517.97
2022-08-22T16:12:34.786Z,99520.97
2022-08-22T16:15:05.313Z,99519.78
2022-08-22T16:17:31.628Z,99514.81
2022-08-22T16:20:19.780Z,99515.47
2022-08-22T16:22:49.702Z,99520.09
2022-08-22T16:25:16.756Z,99519.25
2022-08-22T16:27:53.252Z,99513.81
2022-08-22T16:30:31.743Z,99518.19
2022-08-22T16:32:58.304Z,99519.63
2022-08-22T16:36:02.300Z,99518.41
2022-08-22T16:38:36.840Z,99517.56
2022-08-22T16:41:03.989Z,99516.13
2022-08-22T16:43:30.548Z,99518.84
2022-08-22T16:45:58.765Z,99515.94
2022-08-22T16:48:34.621Z,99515.09
2022-08-22T16:51:14.293Z,99518.19
2022-08-22T16:53:45.636Z,99517.53
2022-08-22T16:56:23.744Z,99517.88
2022-08-22T16:59:22.472Z,99515.69
2022-08-22T17:02:24.873Z,99517.31
2022-08-22T17:05:24.694Z,99519.97
2022-08-22T17:08:18.575Z,99526.97
2022-08-22T17:10:53.083Z,99526.88
2022-08-22T17:13:29.923Z,99519.69
2022-08-22T17:16:05.803Z,99528.22
2022-08-22T17:18:45.302Z,99526.94
2022-08-22T17:21:41.484Z,99521.25
2022-08-22T17:24:31.651Z,99529.22
2022-08-22T17:27:07.383Z,99530.03
2022-08-22T17:29:44.618Z,99535.25
2022-08-22T17:32:21.801Z,99528.97
2022-08-22T17:34:55.831Z,99531.47
2022-08-22T17:37:41.748Z,99531.94
2022-08-22T17:40:34.943Z,99530.50
2022-08-22T17:43:07.508Z,99535.56
2022-08-22T17:45:59.216Z,99526.41
2022-08-22T17:48:31.251Z,99539.88
2022-08-22T17:51:32.214Z,99540.19
2022-08-22T17:54:12.294Z,99541.56
2022-08-22T17:56:42.232Z,99543.09
2022-08-22T17:59:24.227Z,99539.25
2022-08-22T18:01:56.703Z,99549.44
2022-08-22T18:04:29.154Z,99547.88
2022-08-22T18:07:17.401Z,99541.97
2022-08-22T18:09:52.500Z,99547.91
2022-08-22T18:12:24.350Z,99549.31
2022-08-22T18:14:59.110Z,99549.00
2022-08-22T18:17:36.166Z,99544.94
2022-08-22T18:20:20.568Z,99550.41
2022-08-22T18:23:21.240Z,99551.72
2022-08-22T18:26:08.714Z,99559.09
2022-08-22T18:28:51.040Z,99554.53
2022-08-22T18:31:26.696Z,99550.44
2022-08-22T18:34:00.985Z,99553.38
2022-08-22T18:36:38.304Z,99552.13
2022-08-22T18:39:07.437Z,99561.72
2022-08-22T18:41:44.372Z,99554.47
2022-08-22T18:44:18.357Z,99558.84
2022-08-22T18:46:47.628Z,99561.75
2022-08-22T18:49:24.186Z,99562.56
2022-08-22T18:52:05.959Z,99562.75
2022-08-22T18:54:58.792Z,99560.66
2022-08-22T18:57:47.327Z,99560.25
2022-08-22T19:00:22.372Z,99570.03
2022-08-22T19:03:16.551Z,99567.50
2022-08-22T19:06:03.591Z,99566.69
2022-08-22T19:08:53.069Z,99574.16
2022-08-22T19:11:37.309Z,99566.44
2022-08-22T19:14:13.082Z,99571.22
2022-08-22T19:17:16.138Z,99574.94
2022-08-22T19:20:11.015Z,99577.00
2022-08-22T19:22:37.584Z,99577.97
2022-08-22T19:25:18.205Z,99579.00
2022-08-22T19:27:44.701Z,99585.00
2022-08-22T19:30:36.195Z,99583.97
2022-08-22T19:33:10.593Z,99591.84
2022-08-22T19:35:49.352Z,99582.41
2022-08-22T19:38:58.384Z,99593.41
2022-08-22T19:41:45.252Z,99594.19
2022-08-22T19:44:40.304Z,99595.41
2022-08-22T19:47:19.048Z,99593.50
2022-08-22T19:50:08.044Z,99593.69
2022-08-22T19:52:34.500Z,99593.44
2022-08-22T19:55:29.340Z,99591.56
2022-08-22T19:58:07.876Z,99602.56
2022-08-22T20:00:48.307Z,99595.69
2022-08-22T20:03:42.535Z,99602.13
2022-08-22T20:06:43.529Z,99598.59
2022-08-22T20:09:19.401Z,99602.25
2022-08-22T20:12:00.689Z,99600.13
2022-08-22T20:14:30.183Z,99599.88
2022-08-22T20:17:01.905Z,99594.69
2022-08-22T20:22:38.713Z,99595.13
2022-08-22T20:25:42.560Z,99594.94
2022-08-22T20:28:39.888Z,99595.50
2022-08-22T20:31:12.300Z,99596.28
2022-08-22T20:33:41.995Z,99596.03
2022-08-22T20:36:27.220Z,99599.13
2022-08-22T20:38:58.661Z,99603.31
2022-08-22T20:41:35.550Z,99596.66
2022-08-22T20:44:30.630Z,99605.13
2022-08-22T20:47:03.256Z,99600.16
2022-08-22T20:49:43.852Z,99594.75
2022-08-22T20:52:54.331Z,99592.28
2022-08-22T20:55:27.257Z,99592.06
2022-08-22T20:58:02.485Z,99597.66
2022-08-22T21:00:35.495Z,99595.09
2022-08-22T21:03:05.908Z,99593.00
2022-08-22T21:05:38.414Z,99597.72
2022-08-22T21:08:09.040Z,99598.13
2022-08-22T21:10:56.066Z,99597.28
2022-08-22T21:13:29.725Z,99599.97
2022-08-22T21:16:10.256Z,99601.66
2022-08-22T21:18:40.055Z,99598.59
2022-08-22T21:21:18.054Z,99604.16
2022-08-22T21:23:49.720Z,99606.22
2022-08-22T21:26:26.377Z,99601.19
2022-08-22T21:29:05.508Z,99606.16
2022-08-22T21:31:41.425Z,99608.41
2022-08-22T21:34:13.486Z,99608.41
2022-08-22T21:36:40.335Z,99607.81
2022-08-22T21:39:16.767Z,99612.84
2022-08-22T21:41:48.816Z,99604.31
2022-08-22T21:44:37.641Z,99612.75
2022-08-22T21:47:40.074Z,99614.63
2022-08-22T21:50:12.348Z,99612.13
2022-08-22T21:52:41.836Z,99611.28
2022-08-22T21:55:22.556Z,99607.31
2022-08-22T21:58:10.252Z,99602.50
2022-08-22T22:00:50.956Z,99613.09
2022-08-22T22:03:20.284Z,99609.94
2022-08-22T22:05:49.614Z,99615.06
2022-08-22T22:08:16.773Z,99606.50
2022-08-22T22:10:45.341Z,99612.28
2022-08-22T22:13:12.339Z,99609.13
2022-08-22T22:15:46.589Z,99607.06
2022-08-22T22:18:14.860Z,99619.53
2022-08-22T22:20:42.082Z,99619.31
2022-08-22T22:23:08.848Z,99628.06
2022-08-22T22:25:41.125Z,99626.69
2022-08-22T22:28:12.419Z,99625.66
2022-08-22T22:30:39.261Z,99625.47
2022-08-22T22:33:06.301Z,99625.56
2022-08-22T22:35:33.519Z,99628.78
2022-08-22T22:38:00.227Z,99633.22
2022-08-22T22:40:26.846Z,99633.06
2022-08-22T22:42:53.342Z,99637.66
2022-08-22T22:45:19.775Z,99645.28
2022-08-22T22:47:46.281Z,99642.84
2022-08-22T22:50:12.748Z,99638.47
2022-08-22T22:52:40.925Z,99650.13
2022-08-22T22:55:08.869Z,99648.63
2022-08-22T22:57:42.744Z,99651.34
2022-08-22T23:00:11.096Z,99650.41
2022-08-22T23:02:37.542Z,99650.38
2022-08-22T23:05:04.187Z,99649.72
2022-08-22T23:07:30.645Z,99651.75
2022-08-22T23:10:01.294Z,99654.28
2022-08-22T23:12:28.141Z,99652.16
2022-08-22T23:14:54.630Z,99656.97
2022-08-22T23:17:23.133Z,99655.75
2022-08-22T23:19:50.696Z,99662.44
2022-08-22T23:22:17.441Z,99663.91
2022-08-22T23:24:44.083Z,99667.22
2022-08-22T23:27:11.241Z,99673.09
2022-08-22T23:29:41.468Z,99668.09
2022-08-22T23:32:09.370Z,99675.31
2022-08-22T23:34:48.754Z,99677.41
2022-08-22T23:37:17.741Z,99677.75
2022-08-22T23:39:44.594Z,99681.31
2022-08-22T23:42:11.556Z,99676.94
2022-08-22T23:44:39.506Z,99685.44
2022-08-22T23:47:07.625Z,99680.59
2022-08-22T23:49:34.683Z,99675.00
2022-08-22T23:52:01.859Z,99678.72
2022-08-22T23:54:28.329Z,99672.31
2022-08-22T23:56:56.864Z,99672.69
2022-08-22T23:59:29.040Z,99678.47
